Time;durP1;ratioP1;P1;durP2;ratioP2;P2;SDS_P1;SDS_P2;PMS_P1;PMS_P2;Temp;Humidity;BMP_temperature;BMP_pressure;BME280_temperature;BME280_humidity;BME280_pressure;Samples;Min_cycle;Max_cycle;Signal;HPM_P1;HPM_P2
2022/02/10 00:22:35;;;;;;;17.50;8.77;;;;;;;;;;4978348;28;20077;-71
2022/02/10 00:36:07;;;;;;;16.45;8.48;;;;;;;;;;4993450;28;20034;-71
2022/02/10 00:38:32;;;;;;;18.63;8.90;;;;;;;;;;4991610;28;20129;-71
2022/02/10 00:40:58;;;;;;;17.38;8.63;;;;;;;;;;4993202;28;20022;-71
2022/02/10 00:43:24;;;;;;;15.13;7.93;;;;;;;;;;4992171;28;20035;-71
2022/02/10 00:45:50;;;;;;;15.75;8.50;;;;;;;;;;4992497;28;20031;-71
2022/02/10 00:48:17;;;;;;;14.90;8.10;;;;;;;;;;4991670;28;20035;-71
2022/02/10 00:50:44;;;;;;;25.65;9.02;;;;;;;;;;4992929;28;20084;-71
2022/02/10 00:55:40;;;;;;;16.92;8.95;;;;;;;;;;4992816;28;20095;-71
2022/02/10 00:58:09;;;;;;;13.80;8.73;;;;;;;;;;4991482;28;20030;-71
2022/02/10 01:14:18;;;;;;;16.98;8.93;;;;;;;;;;4990062;28;20072;-71
2022/02/10 01:30:17;;;;;;;16.02;8.20;;;;;;;;;;4983744;28;20045;-71
2022/02/10 01:32:46;;;;;;;19.00;7.88;;;;;;;;;;4984290;28;20369;-71
2022/02/10 01:35:18;;;;;;;15.38;8.45;;;;;;;;;;4990946;28;20075;-71
2022/02/10 01:37:44;;;;;;;19.42;9.23;;;;;;;;;;4991152;28;20438;-71
2022/02/10 01:40:18;;;;;;;14.77;8.23;;;;;;;;;;4992504;28;20027;-71
2022/02/10 02:04:16;;;;;;;18.17;7.78;;;;;;;;;;4972691;28;20034;-71
2022/02/10 02:06:45;;;;;;;16.98;8.35;;;;;;;;;;4973762;28;20396;-71
2022/02/10 02:09:14;;;;;;;16.08;7.75;;;;;;;;;;4991779;28;20035;-71
2022/02/10 02:11:40;;;;;;;14.50;7.85;;;;;;;;;;4990668;28;20054;-71
2022/02/10 02:14:09;;;;;;;20.67;8.90;;;;;;;;;;4988544;28;20026;-71
2022/02/10 02:16:35;;;;;;;17.33;7.50;;;;;;;;;;4989455;28;20084;-72
2022/02/10 02:19:02;;;;;;;14.65;7.75;;;;;;;;;;4972127;28;20096;-71
2022/02/10 02:21:30;;;;;;;17.80;8.30;;;;;;;;;;4971893;28;20130;-71
2022/02/10 02:23:56;;;;;;;14.63;8.00;;;;;;;;;;4991245;28;20113;-71
2022/02/10 02:26:25;;;;;;;14.48;7.85;;;;;;;;;;4990152;28;20486;-71
2022/02/10 02:28:57;;;;;;;16.90;7.72;;;;;;;;;;4990218;28;20026;-71
2022/02/10 02:31:28;;;;;;;12.98;7.95;;;;;;;;;;4987816;28;20023;-71
2022/02/10 03:06:48;;;;;;;18.35;8.07;;;;;;;;;;4984944;28;20175;-71
2022/02/10 03:09:22;;;;;;;17.30;8.83;;;;;;;;;;4986519;28;20038;-71
2022/02/10 03:11:48;;;;;;;14.70;8.33;;;;;;;;;;4990883;28;20022;-71
2022/02/10 03:14:22;;;;;;;12.53;8.23;;;;;;;;;;4989914;28;20030;-71
2022/02/10 04:06:05;;;;;;;14.60;9.87;;;;;;;;;;4987231;28;20104;-71
2022/02/10 04:11:38;;;;;;;16.50;8.95;;;;;;;;;;4989097;28;20037;-71
2022/02/10 04:16:42;;;;;;;15.85;9.40;;;;;;;;;;4990532;28;20116;-71
2022/02/10 04:57:52;;;;;;;22.33;10.37;;;;;;;;;;4993277;28;20079;-71
2022/02/10 05:08:51;;;;;;;18.05;10.50;;;;;;;;;;4951772;29;20043;-71
2022/02/10 05:37:53;;;;;;;16.80;10.30;;;;;;;;;;4965482;28;20043;-71
2022/02/10 05:40:53;;;;;;;17.67;10.13;;;;;;;;;;4978512;28;20109;-72
2022/02/10 05:51:38;;;;;;;20.83;10.38;;;;;;;;;;4991424;28;20095;-71
2022/02/10 05:56:32;;;;;;;21.53;11.13;;;;;;;;;;4987464;28;20041;-71
2022/02/10 06:54:13;;;;;;;16.88;10.90;;;;;;;;;;4971341;28;20049;-71
2022/02/10 07:43:50;;;;;;;19.95;9.45;;;;;;;;;;4988434;28;20073;-71
2022/02/10 08:27:53;;;;;;;19.55;10.75;;;;;;;;;;4979555;28;20527;-71
2022/02/10 09:04:01;;;;;;;16.67;11.48;;;;;;;;;;4986035;28;20074;-70
2022/02/10 09:07:36;;;;;;;21.00;12.35;;;;;;;;;;4983608;28;20140;-70
2022/02/10 09:26:47;;;;;;;25.67;12.68;;;;;;;;;;4992204;28;20121;-70
2022/02/10 10:02:01;;;;;;;24.75;13.50;;;;;;;;;;4982482;28;20126;-70
2022/02/10 10:04:34;;;;;;;24.27;14.43;;;;;;;;;;4983069;28;20152;-69
2022/02/10 10:10:23;;;;;;;21.30;14.32;;;;;;;;;;4984431;28;20037;-70
2022/02/10 10:13:30;;;;;;;20.45;13.07;;;;;;;;;;4981838;28;20586;-70
2022/02/10 10:24:14;;;;;;;26.48;14.88;;;;;;;;;;4988316;28;20118;-70
2022/02/10 10:56:53;;;;;;;33.13;18.33;;;;;;;;;;4986693;28;20038;-71
2022/02/10 11:38:47;;;;;;;26.83;16.02;;;;;;;;;;4976118;28;20049;-70
2022/02/10 11:44:05;;;;;;;27.02;16.20;;;;;;;;;;4974581;28;20031;-70
2022/02/10 14:17:30;;;;;;;27.70;15.83;;;;;;;;;;4950466;29;20044;-70
2022/02/10 14:20:00;;;;;;;28.40;15.05;;;;;;;;;;4949918;28;20035;-70
2022/02/10 14:27:44;;;;;;;24.75;14.40;;;;;;;;;;4991736;28;20069;-70
2022/02/10 14:30:10;;;;;;;28.25;15.20;;;;;;;;;;4983523;28;20034;-70
2022/02/10 14:32:41;;;;;;;20.30;14.02;;;;;;;;;;4970618;28;20031;-70
2022/02/10 14:35:18;;;;;;;25.20;14.80;;;;;;;;;;4976018;28;20559;-70
2022/02/10 14:38:07;;;;;;;25.50;13.52;;;;;;;;;;4989142;28;20027;-70
2022/02/10 16:17:40;;;;;;;16.83;9.68;;;;;;;;;;4991799;28;20038;-71
2022/02/10 16:20:07;;;;;;;20.35;10.25;;;;;;;;;;4979068;28;20043;-71
2022/02/10 16:22:38;;;;;;;14.48;8.40;;;;;;;;;;4993388;28;20062;-71
2022/02/10 16:25:07;;;;;;;17.95;9.05;;;;;;;;;;4992176;28;20117;-71
2022/02/10 16:27:35;;;;;;;17.83;9.30;;;;;;;;;;4992011;28;20026;-71
2022/02/10 16:30:08;;;;;;;19.77;8.70;;;;;;;;;;4990752;28;20030;-71
2022/02/10 16:32:35;;;;;;;15.77;7.95;;;;;;;;;;4989033;28;20036;-71
2022/02/10 16:35:03;;;;;;;16.75;8.93;;;;;;;;;;4991740;28;20105;-71
2022/02/10 16:37:40;;;;;;;20.40;9.27;;;;;;;;;;4993115;28;20022;-71
2022/02/10 16:40:06;;;;;;;17.80;8.38;;;;;;;;;;4974948;28;20449;-71
2022/02/10 16:42:32;;;;;;;16.60;8.52;;;;;;;;;;4991701;28;20499;-71
2022/02/10 16:44:58;;;;;;;20.13;8.52;;;;;;;;;;4991056;28;20037;-71
2022/02/10 16:47:24;;;;;;;18.75;9.45;;;;;;;;;;4987258;28;20030;-71
2022/02/10 16:49:53;;;;;;;20.75;10.77;;;;;;;;;;4973347;28;20061;-71
2022/02/10 16:52:23;;;;;;;13.23;9.68;;;;;;;;;;4972625;28;20023;-71
2022/02/10 16:54:52;;;;;;;18.23;10.45;;;;;;;;;;4973417;28;20069;-69
2022/02/10 16:57:35;;;;;;;16.83;9.73;;;;;;;;;;4985425;28;20152;-72
2022/02/10 17:05:17;;;;;;;14.70;10.90;;;;;;;;;;4987781;28;20084;-69
2022/02/10 17:16:56;;;;;;;16.48;9.43;;;;;;;;;;4979464;28;20168;-70
2022/02/10 17:27:23;;;;;;;19.08;11.55;;;;;;;;;;4982994;28;20457;-69
2022/02/10 17:32:51;;;;;;;23.50;11.63;;;;;;;;;;4985537;28;20023;-70
2022/02/10 17:35:21;;;;;;;18.40;10.05;;;;;;;;;;4990332;28;20038;-70
2022/02/10 17:52:01;;;;;;;;;;;;;;;;;;4992764;28;20080;-71
2022/02/10 17:54:28;;;;;;;20.63;10.40;;;;;;;;;;4989404;28;21063;-71
2022/02/10 17:56:55;;;;;;;20.70;10.88;;;;;;;;;;4990288;28;20057;-70
2022/02/10 17:59:23;;;;;;;21.13;10.77;;;;;;;;;;4989562;28;20483;-70
2022/02/10 18:12:21;;;;;;;21.30;10.70;;;;;;;;;;4955372;28;20111;-71
2022/02/10 18:15:00;;;;;;;21.60;12.07;;;;;;;;;;4972313;28;20073;-71
2022/02/10 18:17:38;;;;;;;19.10;9.20;;;;;;;;;;4973798;28;20041;-71
2022/02/10 18:20:18;;;;;;;17.70;9.55;;;;;;;;;;4990157;28;20483;-71
2022/02/10 18:30:39;;;;;;;18.42;12.38;;;;;;;;;;4970729;28;20152;-71
2022/02/10 18:38:12;;;;;;;28.13;14.07;;;;;;;;;;4990219;28;20045;-71
2022/02/10 19:07:19;;;;;;;24.30;15.07;;;;;;;;;;4987842;28;20072;-70
2022/02/10 19:10:13;;;;;;;26.00;14.52;;;;;;;;;;4991844;28;20407;-71
2022/02/10 19:12:46;;;;;;;22.92;14.88;;;;;;;;;;4990532;28;20062;-71
2022/02/10 19:17:42;;;;;;;29.55;16.40;;;;;;;;;;4971182;28;20113;-71
2022/02/10 19:20:09;;;;;;;35.42;17.05;;;;;;;;;;4979050;28;20038;-71
2022/02/10 19:22:46;;;;;;;26.50;15.63;;;;;;;;;;4988381;28;20026;-71
2022/02/10 19:25:16;;;;;;;34.88;17.50;;;;;;;;;;4988869;28;20037;-71
2022/02/10 19:27:58;;;;;;;35.83;18.98;;;;;;;;;;4989260;28;20046;-71
2022/02/10 19:30:26;;;;;;;30.15;18.92;;;;;;;;;;4989142;28;20570;-71
2022/02/10 19:32:59;;;;;;;39.65;19.73;;;;;;;;;;4990360;28;20112;-72
2022/02/10 19:35:28;;;;;;;32.30;18.45;;;;;;;;;;4989214;28;20023;-72
2022/02/10 19:37:59;;;;;;;33.20;21.08;;;;;;;;;;4989400;28;20051;-71
2022/02/10 19:40:27;;;;;;;34.00;20.67;;;;;;;;;;4988871;28;20045;-71
2022/02/10 19:42:56;;;;;;;30.17;18.45;;;;;;;;;;4989490;28;20391;-71
2022/02/10 19:45:25;;;;;;;34.05;20.02;;;;;;;;;;4980045;28;20384;-71
2022/02/10 19:47:52;;;;;;;33.28;18.77;;;;;;;;;;4987932;28;20030;-71
2022/02/10 19:50:28;;;;;;;27.67;19.27;;;;;;;;;;4988143;28;20033;-71
2022/02/10 19:52:59;;;;;;;31.77;18.23;;;;;;;;;;4992675;28;20505;-71
2022/02/10 19:55:28;;;;;;;31.70;17.85;;;;;;;;;;4991717;28;20042;-71
2022/02/10 19:58:04;;;;;;;27.40;18.58;;;;;;;;;;4991481;28;20046;-71
2022/02/10 20:00:35;;;;;;;30.58;19.00;;;;;;;;;;4977828;28;20080;-71
2022/02/10 20:03:08;;;;;;;30.38;17.48;;;;;;;;;;4993083;28;20117;-71
2022/02/10 20:05:42;;;;;;;36.25;19.00;;;;;;;;;;4992382;28;20053;-71
2022/02/10 20:08:14;;;;;;;28.10;20.25;;;;;;;;;;4992070;28;20484;-71
2022/02/10 20:10:42;;;;;;;29.00;19.95;;;;;;;;;;4985932;28;20023;-71
2022/02/10 20:13:15;;;;;;;34.33;20.65;;;;;;;;;;4973664;28;20047;-71
2022/02/10 20:16:07;;;;;;;28.55;19.75;;;;;;;;;;4972386;28;20023;-71
2022/02/10 20:18:35;;;;;;;32.10;20.63;;;;;;;;;;4986958;28;20445;-71
2022/02/10 20:21:11;;;;;;;31.85;21.42;;;;;;;;;;4982124;28;20069;-71
2022/02/10 20:23:46;;;;;;;31.00;21.30;;;;;;;;;;4993265;28;20026;-70
2022/02/10 20:26:27;;;;;;;30.83;21.70;;;;;;;;;;4992213;28;20075;-71
2022/02/10 20:28:53;;;;;;;32.38;20.67;;;;;;;;;;4990761;28;20034;-70
2022/02/10 20:31:21;;;;;;;42.42;23.38;;;;;;;;;;4980161;28;20121;-70
2022/02/10 20:33:47;;;;;;;38.60;22.75;;;;;;;;;;4975364;28;20023;-70
2022/02/10 20:36:16;;;;;;;34.47;21.48;;;;;;;;;;4987976;28;20041;-70
2022/02/10 20:38:59;;;;;;;30.75;19.67;;;;;;;;;;4987988;28;20042;-70
2022/02/10 20:41:32;;;;;;;31.05;19.85;;;;;;;;;;4988148;28;20480;-70
2022/02/10 20:44:00;;;;;;;31.55;19.83;;;;;;;;;;4972723;28;20031;-70
2022/02/10 20:46:30;;;;;;;32.63;20.23;;;;;;;;;;4972014;28;20089;-70
2022/02/10 20:49:18;;;;;;;34.45;19.45;;;;;;;;;;4973314;28;20019;-71
2022/02/10 20:52:04;;;;;;;30.02;19.52;;;;;;;;;;4980534;28;20057;-71
2022/02/10 20:54:31;;;;;;;31.55;19.80;;;;;;;;;;4973397;28;20027;-70
2022/02/10 20:57:08;;;;;;;33.13;18.20;;;;;;;;;;4973958;28;20035;-70
2022/02/10 20:59:43;;;;;;;26.65;18.42;;;;;;;;;;4972861;28;20046;-70
2022/02/10 21:02:19;;;;;;;32.20;18.05;;;;;;;;;;4978788;28;20487;-70
2022/02/10 21:05:36;;;;;;;28.08;17.30;;;;;;;;;;4981492;28;20038;-70
2022/02/10 21:07:47;;;;;;;30.85;17.90;;;;;;;;;;4985207;28;20556;-70
2022/02/10 21:10:16;;;;;;;32.55;19.27;;;;;;;;;;4987234;28;20484;-70
2022/02/10 21:12:45;;;;;;;34.60;19.65;;;;;;;;;;4979128;28;20047;-70
2022/02/10 21:15:19;;;;;;;32.83;19.00;;;;;;;;;;4974216;28;20034;-70
2022/02/10 21:17:48;;;;;;;32.95;20.15;;;;;;;;;;4979239;28;20101;-70
2022/02/10 21:20:37;;;;;;;29.30;18.45;;;;;;;;;;4971247;28;20070;-70
2022/02/10 21:25:38;;;;;;;35.72;19.85;;;;;;;;;;4991840;28;20037;-70
2022/02/10 21:28:15;;;;;;;31.08;18.75;;;;;;;;;;4989974;28;20072;-70
2022/02/10 21:30:42;;;;;;;30.85;17.85;;;;;;;;;;4990437;28;20075;-70
2022/02/10 21:33:16;;;;;;;26.75;17.60;;;;;;;;;;4986582;28;20092;-70
2022/02/10 21:38:29;;;;;;;27.60;16.95;;;;;;;;;;4989408;28;19939;-70
2022/02/10 22:19:11;;;;;;;24.02;15.27;;;;;;;;;;4964103;28;20051;-71
2022/02/10 22:21:51;;;;;;;25.08;14.57;;;;;;;;;;4971684;28;20019;-71
2022/02/10 22:24:21;;;;;;;23.88;14.50;;;;;;;;;;4984809;28;20587;-71
2022/02/10 22:26:51;;;;;;;24.48;15.55;;;;;;;;;;4971591;28;20058;-71
2022/02/10 22:29:28;;;;;;;31.05;16.52;;;;;;;;;;4970060;28;20121;-71
2022/02/10 22:36:59;;;;;;;27.17;14.70;;;;;;;;;;4990209;28;20490;-71
2022/02/10 22:39:26;;;;;;;17.92;12.95;;;;;;;;;;4990509;28;20550;-71
2022/02/10 22:41:53;;;;;;;22.05;12.93;;;;;;;;;;4989741;28;20027;-71
2022/02/10 22:44:19;;;;;;;26.33;13.80;;;;;;;;;;4989312;28;20062;-71
2022/02/10 22:46:46;;;;;;;25.38;14.18;;;;;;;;;;4991323;28;20026;-71
2022/02/10 22:49:13;;;;;;;28.38;13.65;;;;;;;;;;4989350;28;20041;-71
2022/02/10 22:51:39;;;;;;;25.48;13.60;;;;;;;;;;4989046;28;20019;-71
2022/02/10 22:54:06;;;;;;;19.83;13.07;;;;;;;;;;4988688;28;20026;-71
2022/02/10 22:56:32;;;;;;;26.13;12.55;;;;;;;;;;4990723;28;20353;-71
2022/02/10 22:59:01;;;;;;;20.77;12.80;;;;;;;;;;4977255;28;20045;-71
2022/02/10 23:01:27;;;;;;;22.20;13.15;;;;;;;;;;4971702;28;20034;-71
2022/02/10 23:03:54;;;;;;;26.92;12.82;;;;;;;;;;4981266;28;20042;-71
2022/02/10 23:15:45;;;;;;;21.73;10.90;;;;;;;;;;4965600;28;20196;-71
2022/02/10 23:18:12;;;;;;;21.20;12.80;;;;;;;;;;4971419;28;20039;-71
2022/02/10 23:20:38;;;;;;;15.65;10.70;;;;;;;;;;4971795;28;20106;-71
2022/02/10 23:23:05;;;;;;;27.73;11.35;;;;;;;;;;4990819;28;20031;-71
2022/02/10 23:25:41;;;;;;;21.33;11.32;;;;;;;;;;4990770;28;20407;-71
2022/02/10 23:28:10;;;;;;;24.98;13.00;;;;;;;;;;4974825;28;20038;-71
2022/02/10 23:30:36;;;;;;;24.17;12.77;;;;;;;;;;4974328;28;20088;-71
2022/02/10 23:33:27;;;;;;;21.08;11.52;;;;;;;;;;4993836;28;20033;-71
2022/02/10 23:38:39;;;;;;;;;;;;;;;;;;4994829;28;20042;-71
2022/02/10 23:43:49;;;;;;;26.10;11.88;;;;;;;;;;4994467;28;20502;-71
2022/02/10 23:46:24;;;;;;;18.70;11.57;;;;;;;;;;4992786;28;20015;-71
2022/02/10 23:48:53;;;;;;;20.75;10.73;;;;;;;;;;4992130;28;20152;-71
2022/02/10 23:51:22;;;;;;;19.48;11.23;;;;;;;;;;4992713;28;20076;-71
2022/02/10 23:53:48;;;;;;;16.48;10.93;;;;;;;;;;4993854;28;20026;-71
2022/02/10 23:56:17;;;;;;;23.05;11.73;;;;;;;;;;4991641;28;20061;-71
2022/02/10 23:59:03;;;;;;;19.95;10.88;;;;;;;;;;4993624;28;20042;-71
